sensor_id;sensor_type;location;lat;lon;timestamp;P1;durP1;ratioP1;P2;durP2;ratioP2
81544;SDS011;70990;50.618;7.346;2023-08-06T00:00:43;5.70;;;2.40;;
81544;SDS011;70990;50.618;7.346;2023-08-06T00:03:10;5.80;;;2.45;;
81544;SDS011;70990;50.618;7.346;2023-08-06T00:05:37;5.72;;;2.17;;
81544;SDS011;70990;50.618;7.346;2023-08-06T00:08:07;5.30;;;2.13;;
81544;SDS011;70990;50.618;7.346;2023-08-06T00:10:34;6.07;;;2.35;;
81544;SDS011;70990;50.618;7.346;2023-08-06T00:13:00;5.20;;;2.30;;
81544;SDS011;70990;50.618;7.346;2023-08-06T00:15:27;6.25;;;2.25;;
81544;SDS011;70990;50.618;7.346;2023-08-06T00:17:53;8.10;;;2.47;;
81544;SDS011;70990;50.618;7.346;2023-08-06T00:20:20;5.50;;;2.13;;
81544;SDS011;70990;50.618;7.346;2023-08-06T00:22:46;5.95;;;2.33;;
81544;SDS011;70990;50.618;7.346;2023-08-06T00:25:13;4.20;;;1.90;;
81544;SDS011;70990;50.618;7.346;2023-08-06T00:27:39;5.30;;;2.00;;
81544;SDS011;70990;50.618;7.346;2023-08-06T00:30:06;5.63;;;2.38;;
81544;SDS011;70990;50.618;7.346;2023-08-06T00:32:33;4.72;;;1.98;;
81544;SDS011;70990;50.618;7.346;2023-08-06T00:34:59;4.78;;;2.15;;
81544;SDS011;70990;50.618;7.346;2023-08-06T00:37:26;4.97;;;2.28;;
81544;SDS011;70990;50.618;7.346;2023-08-06T00:39:52;5.97;;;2.50;;
81544;SDS011;70990;50.618;7.346;2023-08-06T00:42:19;7.57;;;2.88;;
81544;SDS011;70990;50.618;7.346;2023-08-06T00:44:48;6.65;;;2.60;;
81544;SDS011;70990;50.618;7.346;2023-08-06T00:47:15;6.50;;;2.83;;
81544;SDS011;70990;50.618;7.346;2023-08-06T00:49:43;8.10;;;2.78;;
81544;SDS011;70990;50.618;7.346;2023-08-06T00:52:10;5.68;;;2.40;;
81544;SDS011;70990;50.618;7.346;2023-08-06T00:54:36;7.50;;;2.67;;
81544;SDS011;70990;50.618;7.346;2023-08-06T00:57:03;5.15;;;2.50;;
81544;SDS011;70990;50.618;7.346;2023-08-06T00:59:32;10.90;;;2.60;;
81544;SDS011;70990;50.618;7.346;2023-08-06T01:01:59;6.47;;;2.83;;
81544;SDS011;70990;50.618;7.346;2023-08-06T01:04:26;6.72;;;2.97;;
81544;SDS011;70990;50.618;7.346;2023-08-06T01:09:45;7.65;;;3.42;;
81544;SDS011;70990;50.618;7.346;2023-08-06T01:15:32;7.40;;;2.90;;
81544;SDS011;70990;50.618;7.346;2023-08-06T01:18:04;6.35;;;3.05;;
81544;SDS011;70990;50.618;7.346;2023-08-06T01:20:31;5.82;;;2.42;;
81544;SDS011;70990;50.618;7.346;2023-08-06T01:22:58;5.57;;;2.40;;
81544;SDS011;70990;50.618;7.346;2023-08-06T01:25:27;4.40;;;2.20;;
81544;SDS011;70990;50.618;7.346;2023-08-06T01:27:59;6.85;;;2.42;;
81544;SDS011;70990;50.618;7.346;2023-08-06T01:30:33;7.22;;;2.72;;
81544;SDS011;70990;50.618;7.346;2023-08-06T01:33:06;5.72;;;2.08;;
81544;SDS011;70990;50.618;7.346;2023-08-06T01:35:40;5.82;;;2.05;;
81544;SDS011;70990;50.618;7.346;2023-08-06T01:38:09;6.30;;;2.30;;
81544;SDS011;70990;50.618;7.346;2023-08-06T01:40:35;6.68;;;2.47;;
81544;SDS011;70990;50.618;7.346;2023-08-06T01:43:02;5.15;;;2.05;;
81544;SDS011;70990;50.618;7.346;2023-08-06T01:45:29;5.15;;;2.08;;
81544;SDS011;70990;50.618;7.346;2023-08-06T01:47:58;6.28;;;2.20;;
81544;SDS011;70990;50.618;7.346;2023-08-06T01:50:25;4.90;;;2.00;;
81544;SDS011;70990;50.618;7.346;2023-08-06T01:52:51;5.18;;;1.85;;
81544;SDS011;70990;50.618;7.346;2023-08-06T01:55:18;6.80;;;2.35;;
81544;SDS011;70990;50.618;7.346;2023-08-06T01:57:45;5.45;;;2.13;;
81544;SDS011;70990;50.618;7.346;2023-08-06T02:00:12;5.65;;;2.30;;
81544;SDS011;70990;50.618;7.346;2023-08-06T02:02:38;4.53;;;1.80;;
81544;SDS011;70990;50.618;7.346;2023-08-06T02:05:05;7.45;;;2.22;;
81544;SDS011;70990;50.618;7.346;2023-08-06T02:07:32;4.47;;;2.00;;
81544;SDS011;70990;50.618;7.346;2023-08-06T02:09:58;6.00;;;1.95;;
81544;SDS011;70990;50.618;7.346;2023-08-06T02:12:25;6.15;;;2.33;;
81544;SDS011;70990;50.618;7.346;2023-08-06T02:14:51;7.15;;;1.95;;
81544;SDS011;70990;50.618;7.346;2023-08-06T02:17:18;4.25;;;1.90;;
81544;SDS011;70990;50.618;7.346;2023-08-06T02:19:44;4.80;;;1.92;;
81544;SDS011;70990;50.618;7.346;2023-08-06T02:22:11;5.32;;;2.33;;
81544;SDS011;70990;50.618;7.346;2023-08-06T02:24:37;5.00;;;2.35;;
81544;SDS011;70990;50.618;7.346;2023-08-06T02:27:04;5.05;;;1.90;;
81544;SDS011;70990;50.618;7.346;2023-08-06T02:29:30;7.53;;;2.10;;
81544;SDS011;70990;50.618;7.346;2023-08-06T02:31:57;7.65;;;2.55;;
81544;SDS011;70990;50.618;7.346;2023-08-06T02:34:25;6.28;;;2.20;;
81544;SDS011;70990;50.618;7.346;2023-08-06T02:36:54;5.85;;;2.05;;
81544;SDS011;70990;50.618;7.346;2023-08-06T02:39:21;5.30;;;2.22;;
81544;SDS011;70990;50.618;7.346;2023-08-06T02:41:48;5.50;;;2.25;;
81544;SDS011;70990;50.618;7.346;2023-08-06T02:44:14;6.22;;;2.40;;
81544;SDS011;70990;50.618;7.346;2023-08-06T02:46:43;5.30;;;2.35;;
81544;SDS011;70990;50.618;7.346;2023-08-06T02:49:10;5.78;;;2.50;;
81544;SDS011;70990;50.618;7.346;2023-08-06T02:51:37;6.03;;;2.08;;
81544;SDS011;70990;50.618;7.346;2023-08-06T02:54:03;6.03;;;2.15;;
81544;SDS011;70990;50.618;7.346;2023-08-06T02:56:32;5.15;;;1.90;;
81544;SDS011;70990;50.618;7.346;2023-08-06T02:59:12;5.95;;;1.55;;
81544;SDS011;70990;50.618;7.346;2023-08-06T03:01:57;4.60;;;1.70;;
81544;SDS011;70990;50.618;7.346;2023-08-06T03:04:32;5.70;;;2.05;;
81544;SDS011;70990;50.618;7.346;2023-08-06T03:06:59;8.23;;;2.72;;
81544;SDS011;70990;50.618;7.346;2023-08-06T03:09:33;6.05;;;1.85;;
81544;SDS011;70990;50.618;7.346;2023-08-06T03:12:00;6.43;;;2.17;;
81544;SDS011;70990;50.618;7.346;2023-08-06T03:14:27;6.63;;;2.40;;
81544;SDS011;70990;50.618;7.346;2023-08-06T03:16:54;7.55;;;2.35;;
81544;SDS011;70990;50.618;7.346;2023-08-06T03:19:20;4.70;;;1.95;;
81544;SDS011;70990;50.618;7.346;2023-08-06T03:21:47;6.68;;;2.13;;
81544;SDS011;70990;50.618;7.346;2023-08-06T03:24:14;5.63;;;2.10;;
81544;SDS011;70990;50.618;7.346;2023-08-06T03:26:42;4.78;;;1.92;;
81544;SDS011;70990;50.618;7.346;2023-08-06T03:29:09;5.82;;;2.10;;
81544;SDS011;70990;50.618;7.346;2023-08-06T03:31:37;5.45;;;1.85;;
81544;SDS011;70990;50.618;7.346;2023-08-06T03:34:04;5.53;;;2.10;;
81544;SDS011;70990;50.618;7.346;2023-08-06T03:36:31;6.80;;;1.90;;
81544;SDS011;70990;50.618;7.346;2023-08-06T03:38:57;5.10;;;1.50;;
81544;SDS011;70990;50.618;7.346;2023-08-06T03:41:25;6.07;;;2.33;;
81544;SDS011;70990;50.618;7.346;2023-08-06T03:43:52;4.32;;;1.67;;
81544;SDS011;70990;50.618;7.346;2023-08-06T03:46:24;6.10;;;2.05;;
81544;SDS011;70990;50.618;7.346;2023-08-06T03:48:50;5.32;;;1.75;;
81544;SDS011;70990;50.618;7.346;2023-08-06T03:51:17;6.20;;;2.08;;
81544;SDS011;70990;50.618;7.346;2023-08-06T03:53:45;6.70;;;2.10;;
81544;SDS011;70990;50.618;7.346;2023-08-06T03:56:12;6.38;;;1.98;;
81544;SDS011;70990;50.618;7.346;2023-08-06T03:58:38;6.30;;;2.00;;
81544;SDS011;70990;50.618;7.346;2023-08-06T04:01:06;6.70;;;2.20;;
81544;SDS011;70990;50.618;7.346;2023-08-06T04:03:39;5.65;;;2.00;;
81544;SDS011;70990;50.618;7.346;2023-08-06T04:06:06;5.22;;;1.95;;
81544;SDS011;70990;50.618;7.346;2023-08-06T04:08:33;5.88;;;1.90;;
81544;SDS011;70990;50.618;7.346;2023-08-06T04:11:01;5.10;;;2.05;;
81544;SDS011;70990;50.618;7.346;2023-08-06T04:13:28;6.82;;;2.15;;
81544;SDS011;70990;50.618;7.346;2023-08-06T04:16:00;7.38;;;2.28;;
81544;SDS011;70990;50.618;7.346;2023-08-06T04:18:27;7.25;;;2.30;;
81544;SDS011;70990;50.618;7.346;2023-08-06T04:20:54;7.53;;;2.35;;
81544;SDS011;70990;50.618;7.346;2023-08-06T04:23:21;6.03;;;2.30;;
81544;SDS011;70990;50.618;7.346;2023-08-06T04:25:47;8.00;;;2.40;;
81544;SDS011;70990;50.618;7.346;2023-08-06T04:28:14;5.80;;;2.08;;
81544;SDS011;70990;50.618;7.346;2023-08-06T04:30:40;5.65;;;2.08;;
81544;SDS011;70990;50.618;7.346;2023-08-06T04:33:08;5.68;;;2.60;;
81544;SDS011;70990;50.618;7.346;2023-08-06T04:35:34;6.03;;;2.28;;
81544;SDS011;70990;50.618;7.346;2023-08-06T04:38:01;5.93;;;2.45;;
81544;SDS011;70990;50.618;7.346;2023-08-06T04:40:27;6.65;;;2.63;;
81544;SDS011;70990;50.618;7.346;2023-08-06T04:42:54;6.38;;;2.20;;
81544;SDS011;70990;50.618;7.346;2023-08-06T04:45:21;6.18;;;2.40;;
81544;SDS011;70990;50.618;7.346;2023-08-06T04:47:48;7.93;;;2.75;;
81544;SDS011;70990;50.618;7.346;2023-08-06T04:50:14;10.82;;;2.72;;
81544;SDS011;70990;50.618;7.346;2023-08-06T04:52:41;5.13;;;2.00;;
81544;SDS011;70990;50.618;7.346;2023-08-06T04:55:07;6.53;;;2.53;;
81544;SDS011;70990;50.618;7.346;2023-08-06T04:57:35;4.07;;;1.58;;
81544;SDS011;70990;50.618;7.346;2023-08-06T05:00:01;5.18;;;1.75;;
81544;SDS011;70990;50.618;7.346;2023-08-06T05:02:28;3.33;;;1.50;;
81544;SDS011;70990;50.618;7.346;2023-08-06T05:04:55;5.07;;;1.88;;
81544;SDS011;70990;50.618;7.346;2023-08-06T05:07:21;4.03;;;1.40;;
81544;SDS011;70990;50.618;7.346;2023-08-06T05:09:48;4.68;;;1.20;;
81544;SDS011;70990;50.618;7.346;2023-08-06T05:12:14;5.75;;;1.60;;
81544;SDS011;70990;50.618;7.346;2023-08-06T05:14:41;5.47;;;2.33;;
81544;SDS011;70990;50.618;7.346;2023-08-06T05:17:07;6.18;;;1.38;;
81544;SDS011;70990;50.618;7.346;2023-08-06T05:19:33;3.15;;;1.38;;
81544;SDS011;70990;50.618;7.346;2023-08-06T05:22:00;6.68;;;1.20;;
81544;SDS011;70990;50.618;7.346;2023-08-06T05:24:26;6.88;;;1.70;;
81544;SDS011;70990;50.618;7.346;2023-08-06T05:26:53;5.55;;;1.40;;
81544;SDS011;70990;50.618;7.346;2023-08-06T05:29:20;2.58;;;1.10;;
81544;SDS011;70990;50.618;7.346;2023-08-06T05:31:49;5.53;;;1.00;;
81544;SDS011;70990;50.618;7.346;2023-08-06T05:34:15;4.40;;;1.00;;
81544;SDS011;70990;50.618;7.346;2023-08-06T05:36:42;3.28;;;1.25;;
81544;SDS011;70990;50.618;7.346;2023-08-06T05:39:09;4.63;;;1.38;;
81544;SDS011;70990;50.618;7.346;2023-08-06T05:41:35;2.45;;;1.10;;
81544;SDS011;70990;50.618;7.346;2023-08-06T05:44:01;4.82;;;1.25;;
81544;SDS011;70990;50.618;7.346;2023-08-06T05:46:30;2.05;;;1.02;;
81544;SDS011;70990;50.618;7.346;2023-08-06T05:48:59;2.50;;;0.95;;
81544;SDS011;70990;50.618;7.346;2023-08-06T05:51:26;1.30;;;0.65;;
81544;SDS011;70990;50.618;7.346;2023-08-06T05:53:53;1.55;;;0.65;;
81544;SDS011;70990;50.618;7.346;2023-08-06T05:56:27;1.48;;;0.52;;
81544;SDS011;70990;50.618;7.346;2023-08-06T05:58:54;1.50;;;0.47;;
81544;SDS011;70990;50.618;7.346;2023-08-06T06:01:20;2.25;;;0.70;;
81544;SDS011;70990;50.618;7.346;2023-08-06T06:03:47;1.52;;;0.90;;
81544;SDS011;70990;50.618;7.346;2023-08-06T06:06:14;1.58;;;0.60;;
81544;SDS011;70990;50.618;7.346;2023-08-06T06:08:42;1.25;;;0.55;;
81544;SDS011;70990;50.618;7.346;2023-08-06T06:11:12;1.48;;;0.63;;
81544;SDS011;70990;50.618;7.346;2023-08-06T06:13:41;1.25;;;0.68;;
81544;SDS011;70990;50.618;7.346;2023-08-06T06:16:08;1.30;;;0.50;;
81544;SDS011;70990;50.618;7.346;2023-08-06T06:18:35;1.02;;;0.70;;
81544;SDS011;70990;50.618;7.346;2023-08-06T06:21:02;3.60;;;0.40;;
81544;SDS011;70990;50.618;7.346;2023-08-06T06:23:28;0.75;;;0.52;;
81544;SDS011;70990;50.618;7.346;2023-08-06T06:25:55;0.95;;;0.50;;
81544;SDS011;70990;50.618;7.346;2023-08-06T06:28:21;6.43;;;1.13;;
81544;SDS011;70990;50.618;7.346;2023-08-06T06:30:48;1.13;;;0.47;;
81544;SDS011;70990;50.618;7.346;2023-08-06T06:33:15;2.33;;;0.80;;
81544;SDS011;70990;50.618;7.346;2023-08-06T06:35:42;1.88;;;0.60;;
81544;SDS011;70990;50.618;7.346;2023-08-06T06:38:11;1.40;;;0.57;;
81544;SDS011;70990;50.618;7.346;2023-08-06T06:40:38;1.33;;;0.60;;
81544;SDS011;70990;50.618;7.346;2023-08-06T06:43:05;1.08;;;0.65;;
81544;SDS011;70990;50.618;7.346;2023-08-06T06:45:31;2.05;;;0.73;;
81544;SDS011;70990;50.618;7.346;2023-08-06T06:47:58;0.98;;;0.60;;
81544;SDS011;70990;50.618;7.346;2023-08-06T06:50:24;0.98;;;0.60;;
81544;SDS011;70990;50.618;7.346;2023-08-06T06:52:51;1.75;;;0.55;;
81544;SDS011;70990;50.618;7.346;2023-08-06T06:55:17;1.15;;;0.40;;
81544;SDS011;70990;50.618;7.346;2023-08-06T06:57:44;1.17;;;0.70;;
81544;SDS011;70990;50.618;7.346;2023-08-06T07:00:10;5.93;;;1.30;;
81544;SDS011;70990;50.618;7.346;2023-08-06T07:02:37;1.60;;;0.90;;
81544;SDS011;70990;50.618;7.346;2023-08-06T07:05:04;1.15;;;0.60;;
81544;SDS011;70990;50.618;7.346;2023-08-06T07:07:33;0.90;;;0.57;;
81544;SDS011;70990;50.618;7.346;2023-08-06T07:10:00;1.17;;;0.70;;
81544;SDS011;70990;50.618;7.346;2023-08-06T07:12:26;1.25;;;0.85;;
81544;SDS011;70990;50.618;7.346;2023-08-06T07:14:53;1.92;;;0.80;;
81544;SDS011;70990;50.618;7.346;2023-08-06T07:17:19;1.83;;;0.68;;
81544;SDS011;70990;50.618;7.346;2023-08-06T07:19:47;1.27;;;0.40;;
81544;SDS011;70990;50.618;7.346;2023-08-06T07:22:13;1.42;;;0.60;;
81544;SDS011;70990;50.618;7.346;2023-08-06T07:24:40;2.45;;;0.70;;
81544;SDS011;70990;50.618;7.346;2023-08-06T07:27:06;2.70;;;0.63;;
81544;SDS011;70990;50.618;7.346;2023-08-06T07:29:33;4.03;;;0.60;;
81544;SDS011;70990;50.618;7.346;2023-08-06T07:32:00;1.90;;;0.80;;
81544;SDS011;70990;50.618;7.346;2023-08-06T07:34:27;1.17;;;0.50;;
81544;SDS011;70990;50.618;7.346;2023-08-06T07:36:54;0.50;;;0.50;;
81544;SDS011;70990;50.618;7.346;2023-08-06T07:39:21;1.88;;;0.80;;
81544;SDS011;70990;50.618;7.346;2023-08-06T07:41:47;2.72;;;0.70;;
81544;SDS011;70990;50.618;7.346;2023-08-06T07:44:14;1.77;;;0.40;;
81544;SDS011;70990;50.618;7.346;2023-08-06T07:46:41;2.38;;;0.50;;
81544;SDS011;70990;50.618;7.346;2023-08-06T07:49:08;1.38;;;0.90;;
81544;SDS011;70990;50.618;7.346;2023-08-06T07:51:35;2.15;;;0.77;;
81544;SDS011;70990;50.618;7.346;2023-08-06T07:54:05;1.77;;;0.80;;
81544;SDS011;70990;50.618;7.346;2023-08-06T07:56:43;1.80;;;0.70;;
81544;SDS011;70990;50.618;7.346;2023-08-06T07:59:10;2.53;;;0.80;;
81544;SDS011;70990;50.618;7.346;2023-08-06T08:01:38;1.13;;;0.80;;
81544;SDS011;70990;50.618;7.346;2023-08-06T08:04:04;3.08;;;1.05;;
81544;SDS011;70990;50.618;7.346;2023-08-06T08:06:31;1.30;;;0.77;;
81544;SDS011;70990;50.618;7.346;2023-08-06T08:08:57;2.17;;;1.00;;
81544;SDS011;70990;50.618;7.346;2023-08-06T08:11:25;2.33;;;1.00;;
81544;SDS011;70990;50.618;7.346;2023-08-06T08:13:52;1.88;;;0.93;;
81544;SDS011;70990;50.618;7.346;2023-08-06T08:16:19;3.50;;;0.98;;
81544;SDS011;70990;50.618;7.346;2023-08-06T08:18:45;1.95;;;1.08;;
81544;SDS011;70990;50.618;7.346;2023-08-06T08:21:12;2.33;;;1.00;;
81544;SDS011;70990;50.618;7.346;2023-08-06T08:23:39;1.77;;;0.80;;
81544;SDS011;70990;50.618;7.346;2023-08-06T08:26:09;2.65;;;0.95;;
81544;SDS011;70990;50.618;7.346;2023-08-06T08:28:36;2.33;;;0.95;;
81544;SDS011;70990;50.618;7.346;2023-08-06T08:31:02;3.25;;;1.00;;
81544;SDS011;70990;50.618;7.346;2023-08-06T08:33:29;5.10;;;1.02;;
81544;SDS011;70990;50.618;7.346;2023-08-06T08:35:55;3.78;;;1.13;;
81544;SDS011;70990;50.618;7.346;2023-08-06T08:38:22;1.75;;;1.08;;
81544;SDS011;70990;50.618;7.346;2023-08-06T08:40:49;4.90;;;1.35;;
81544;SDS011;70990;50.618;7.346;2023-08-06T08:43:23;2.63;;;1.10;;
81544;SDS011;70990;50.618;7.346;2023-08-06T08:45:50;2.90;;;1.25;;
81544;SDS011;70990;50.618;7.346;2023-08-06T08:48:18;3.10;;;1.38;;
81544;SDS011;70990;50.618;7.346;2023-08-06T08:50:45;4.47;;;1.30;;
81544;SDS011;70990;50.618;7.346;2023-08-06T08:53:15;8.75;;;1.30;;
81544;SDS011;70990;50.618;7.346;2023-08-06T08:55:42;3.88;;;1.02;;
81544;SDS011;70990;50.618;7.346;2023-08-06T08:58:13;3.78;;;1.20;;
81544;SDS011;70990;50.618;7.346;2023-08-06T09:00:42;12.38;;;1.40;;
81544;SDS011;70990;50.618;7.346;2023-08-06T09:03:11;3.22;;;1.10;;
81544;SDS011;70990;50.618;7.346;2023-08-06T09:05:39;2.45;;;1.17;;
81544;SDS011;70990;50.618;7.346;2023-08-06T09:08:11;2.88;;;0.88;;
81544;SDS011;70990;50.618;7.346;2023-08-06T09:10:41;2.53;;;1.33;;
81544;SDS011;70990;50.618;7.346;2023-08-06T09:13:09;2.63;;;1.17;;
81544;SDS011;70990;50.618;7.346;2023-08-06T09:15:36;4.65;;;1.27;;
81544;SDS011;70990;50.618;7.346;2023-08-06T09:18:08;1.92;;;1.13;;
81544;SDS011;70990;50.618;7.346;2023-08-06T09:20:36;2.47;;;1.30;;
81544;SDS011;70990;50.618;7.346;2023-08-06T09:23:07;3.10;;;1.40;;
81544;SDS011;70990;50.618;7.346;2023-08-06T09:25:36;3.65;;;1.40;;
81544;SDS011;70990;50.618;7.346;2023-08-06T09:28:04;4.07;;;1.90;;
81544;SDS011;70990;50.618;7.346;2023-08-06T09:30:32;3.00;;;1.30;;
81544;SDS011;70990;50.618;7.346;2023-08-06T09:33:00;3.22;;;1.17;;
81544;SDS011;70990;50.618;7.346;2023-08-06T09:35:28;1.95;;;1.00;;
81544;SDS011;70990;50.618;7.346;2023-08-06T09:37:59;2.45;;;1.10;;
81544;SDS011;70990;50.618;7.346;2023-08-06T09:40:31;0.82;;;0.60;;
81544;SDS011;70990;50.618;7.346;2023-08-06T09:42:58;0.90;;;0.70;;
81544;SDS011;70990;50.618;7.346;2023-08-06T09:45:36;2.13;;;0.68;;
81544;SDS011;70990;50.618;7.346;2023-08-06T09:48:04;1.13;;;0.68;;
81544;SDS011;70990;50.618;7.346;2023-08-06T09:50:32;2.00;;;0.82;;
81544;SDS011;70990;50.618;7.346;2023-08-06T09:53:00;0.70;;;0.50;;
81544;SDS011;70990;50.618;7.346;2023-08-06T09:55:30;1.70;;;0.90;;
81544;SDS011;70990;50.618;7.346;2023-08-06T09:57:56;0.85;;;0.68;;
81544;SDS011;70990;50.618;7.346;2023-08-06T10:00:24;0.70;;;0.40;;
81544;SDS011;70990;50.618;7.346;2023-08-06T10:02:54;0.80;;;0.57;;
81544;SDS011;70990;50.618;7.346;2023-08-06T10:05:27;0.80;;;0.30;;
81544;SDS011;70990;50.618;7.346;2023-08-06T10:07:56;1.17;;;0.45;;
81544;SDS011;70990;50.618;7.346;2023-08-06T10:10:28;0.10;;;0.10;;
81544;SDS011;70990;50.618;7.346;2023-08-06T10:12:56;0.55;;;0.20;;
81544;SDS011;70990;50.618;7.346;2023-08-06T10:15:25;0.55;;;0.20;;
81544;SDS011;70990;50.618;7.346;2023-08-06T10:17:57;0.45;;;0.15;;
81544;SDS011;70990;50.618;7.346;2023-08-06T10:20:25;0.50;;;0.15;;
81544;SDS011;70990;50.618;7.346;2023-08-06T10:23:10;0.30;;;0.30;;
81544;SDS011;70990;50.618;7.346;2023-08-06T10:25:40;0.88;;;0.47;;
81544;SDS011;70990;50.618;7.346;2023-08-06T10:30:41;1.00;;;0.20;;
81544;SDS011;70990;50.618;7.346;2023-08-06T10:33:10;0.13;;;0.08;;
81544;SDS011;70990;50.618;7.346;2023-08-06T10:35:43;1.38;;;0.50;;
81544;SDS011;70990;50.618;7.346;2023-08-06T10:38:14;2.05;;;0.73;;
81544;SDS011;70990;50.618;7.346;2023-08-06T10:40:48;1.77;;;0.73;;
81544;SDS011;70990;50.618;7.346;2023-08-06T10:43:29;1.60;;;0.65;;
81544;SDS011;70990;50.618;7.346;2023-08-06T10:45:57;3.25;;;1.23;;
81544;SDS011;70990;50.618;7.346;2023-08-06T10:51:00;3.03;;;1.00;;
81544;SDS011;70990;50.618;7.346;2023-08-06T10:53:27;4.88;;;1.00;;
81544;SDS011;70990;50.618;7.346;2023-08-06T10:55:58;2.60;;;0.82;;
81544;SDS011;70990;50.618;7.346;2023-08-06T10:58:25;1.70;;;0.75;;
81544;SDS011;70990;50.618;7.346;2023-08-06T11:00:54;2.05;;;0.80;;
81544;SDS011;70990;50.618;7.346;2023-08-06T11:03:22;1.05;;;0.70;;
81544;SDS011;70990;50.618;7.346;2023-08-06T11:05:49;1.55;;;1.00;;
81544;SDS011;70990;50.618;7.346;2023-08-06T11:08:25;1.92;;;0.80;;
81544;SDS011;70990;50.618;7.346;2023-08-06T11:10:53;1.85;;;0.65;;
81544;SDS011;70990;50.618;7.346;2023-08-06T11:13:29;2.63;;;0.90;;
81544;SDS011;70990;50.618;7.346;2023-08-06T11:15:56;4.45;;;0.80;;
81544;SDS011;70990;50.618;7.346;2023-08-06T11:18:23;3.65;;;0.85;;
81544;SDS011;70990;50.618;7.346;2023-08-06T11:20:52;2.58;;;1.00;;
81544;SDS011;70990;50.618;7.346;2023-08-06T11:23:18;1.88;;;0.77;;
81544;SDS011;70990;50.618;7.346;2023-08-06T11:25:45;3.33;;;1.02;;
81544;SDS011;70990;50.618;7.346;2023-08-06T11:28:12;2.92;;;1.02;;
81544;SDS011;70990;50.618;7.346;2023-08-06T11:30:43;3.20;;;0.88;;
81544;SDS011;70990;50.618;7.346;2023-08-06T11:33:12;2.58;;;0.90;;
81544;SDS011;70990;50.618;7.346;2023-08-06T11:35:39;2.45;;;0.68;;
81544;SDS011;70990;50.618;7.346;2023-08-06T11:38:06;1.05;;;0.57;;
81544;SDS011;70990;50.618;7.346;2023-08-06T11:40:33;1.80;;;0.80;;
81544;SDS011;70990;50.618;7.346;2023-08-06T11:43:12;1.60;;;0.77;;
81544;SDS011;70990;50.618;7.346;2023-08-06T11:45:40;3.78;;;1.08;;
81544;SDS011;70990;50.618;7.346;2023-08-06T11:48:07;1.50;;;0.70;;
81544;SDS011;70990;50.618;7.346;2023-08-06T11:50:36;3.58;;;1.00;;
81544;SDS011;70990;50.618;7.346;2023-08-06T11:53:11;4.50;;;1.00;;
81544;SDS011;70990;50.618;7.346;2023-08-06T11:55:39;3.65;;;1.10;;
81544;SDS011;70990;50.618;7.346;2023-08-06T11:58:06;3.03;;;0.80;;
81544;SDS011;70990;50.618;7.346;2023-08-06T12:00:33;1.90;;;0.75;;
81544;SDS011;70990;50.618;7.346;2023-08-06T12:03:00;2.50;;;1.00;;
81544;SDS011;70990;50.618;7.346;2023-08-06T12:05:30;1.80;;;0.98;;
81544;SDS011;70990;50.618;7.346;2023-08-06T12:10:25;2.03;;;0.70;;
81544;SDS011;70990;50.618;7.346;2023-08-06T12:12:53;3.80;;;1.10;;
81544;SDS011;70990;50.618;7.346;2023-08-06T12:15:19;4.95;;;0.93;;
81544;SDS011;70990;50.618;7.346;2023-08-06T12:17:46;2.35;;;0.75;;
81544;SDS011;70990;50.618;7.346;2023-08-06T12:20:13;3.80;;;0.90;;
81544;SDS011;70990;50.618;7.346;2023-08-06T12:22:40;2.25;;;0.88;;
81544;SDS011;70990;50.618;7.346;2023-08-06T12:25:07;2.28;;;0.88;;
81544;SDS011;70990;50.618;7.346;2023-08-06T12:27:35;2.25;;;1.25;;
81544;SDS011;70990;50.618;7.346;2023-08-06T12:30:03;5.90;;;0.90;;
81544;SDS011;70990;50.618;7.346;2023-08-06T12:32:31;2.08;;;0.90;;
81544;SDS011;70990;50.618;7.346;2023-08-06T12:34:58;2.75;;;1.17;;
81544;SDS011;70990;50.618;7.346;2023-08-06T12:37:25;2.80;;;1.50;;
81544;SDS011;70990;50.618;7.346;2023-08-06T12:39:51;2.80;;;1.00;;
81544;SDS011;70990;50.618;7.346;2023-08-06T12:42:18;3.45;;;1.20;;
81544;SDS011;70990;50.618;7.346;2023-08-06T12:44:49;2.53;;;0.80;;
81544;SDS011;70990;50.618;7.346;2023-08-06T12:47:16;1.58;;;0.93;;
81544;SDS011;70990;50.618;7.346;2023-08-06T12:49:43;3.17;;;1.20;;
81544;SDS011;70990;50.618;7.346;2023-08-06T12:52:10;1.27;;;0.77;;
81544;SDS011;70990;50.618;7.346;2023-08-06T12:54:39;1.80;;;0.82;;
81544;SDS011;70990;50.618;7.346;2023-08-06T12:57:15;3.33;;;1.38;;
81544;SDS011;70990;50.618;7.346;2023-08-06T12:59:41;2.25;;;1.08;;
81544;SDS011;70990;50.618;7.346;2023-08-06T13:02:07;1.08;;;0.68;;
81544;SDS011;70990;50.618;7.346;2023-08-06T13:04:34;1.92;;;1.00;;
81544;SDS011;70990;50.618;7.346;2023-08-06T13:07:10;2.72;;;1.30;;
81544;SDS011;70990;50.618;7.346;2023-08-06T13:09:36;1.35;;;0.80;;
81544;SDS011;70990;50.618;7.346;2023-08-06T13:12:03;2.17;;;1.20;;
81544;SDS011;70990;50.618;7.346;2023-08-06T13:14:32;1.65;;;0.90;;
81544;SDS011;70990;50.618;7.346;2023-08-06T13:16:58;1.98;;;0.95;;
81544;SDS011;70990;50.618;7.346;2023-08-06T13:19:25;0.82;;;0.60;;
81544;SDS011;70990;50.618;7.346;2023-08-06T13:21:58;3.65;;;1.42;;
81544;SDS011;70990;50.618;7.346;2023-08-06T13:24:29;1.70;;;0.77;;
81544;SDS011;70990;50.618;7.346;2023-08-06T13:26:56;2.60;;;0.90;;
81544;SDS011;70990;50.618;7.346;2023-08-06T13:29:23;0.77;;;0.70;;
81544;SDS011;70990;50.618;7.346;2023-08-06T13:31:49;3.65;;;0.90;;
81544;SDS011;70990;50.618;7.346;2023-08-06T13:34:19;1.80;;;0.85;;
81544;SDS011;70990;50.618;7.346;2023-08-06T13:36:49;2.05;;;0.90;;
81544;SDS011;70990;50.618;7.346;2023-08-06T13:39:16;1.20;;;0.70;;
81544;SDS011;70990;50.618;7.346;2023-08-06T13:41:43;0.93;;;0.60;;
81544;SDS011;70990;50.618;7.346;2023-08-06T13:44:10;1.80;;;0.73;;
81544;SDS011;70990;50.618;7.346;2023-08-06T13:46:36;1.65;;;0.82;;
81544;SDS011;70990;50.618;7.346;2023-08-06T13:49:03;2.17;;;0.93;;
81544;SDS011;70990;50.618;7.346;2023-08-06T13:51:30;1.38;;;0.80;;
81544;SDS011;70990;50.618;7.346;2023-08-06T13:53:57;2.40;;;1.10;;
81544;SDS011;70990;50.618;7.346;2023-08-06T13:56:23;3.10;;;0.95;;
81544;SDS011;70990;50.618;7.346;2023-08-06T13:58:50;2.28;;;1.35;;
81544;SDS011;70990;50.618;7.346;2023-08-06T14:01:17;2.38;;;1.30;;
81544;SDS011;70990;50.618;7.346;2023-08-06T14:03:44;3.05;;;1.40;;
81544;SDS011;70990;50.618;7.346;2023-08-06T14:06:11;5.20;;;1.60;;
81544;SDS011;70990;50.618;7.346;2023-08-06T14:08:37;3.45;;;1.30;;
81544;SDS011;70990;50.618;7.346;2023-08-06T14:11:12;4.10;;;1.60;;
81544;SDS011;70990;50.618;7.346;2023-08-06T14:13:39;2.97;;;1.35;;
81544;SDS011;70990;50.618;7.346;2023-08-06T14:16:06;2.28;;;1.25;;
81544;SDS011;70990;50.618;7.346;2023-08-06T14:18:32;3.88;;;1.20;;
81544;SDS011;70990;50.618;7.346;2023-08-06T14:20:59;4.22;;;1.50;;
81544;SDS011;70990;50.618;7.346;2023-08-06T14:23:25;4.38;;;1.40;;
81544;SDS011;70990;50.618;7.346;2023-08-06T14:25:52;4.15;;;1.48;;
81544;SDS011;70990;50.618;7.346;2023-08-06T14:28:18;3.78;;;1.40;;
81544;SDS011;70990;50.618;7.346;2023-08-06T14:30:45;3.60;;;1.38;;
81544;SDS011;70990;50.618;7.346;2023-08-06T14:33:11;3.92;;;1.10;;
81544;SDS011;70990;50.618;7.346;2023-08-06T14:35:51;1.45;;;0.82;;
81544;SDS011;70990;50.618;7.346;2023-08-06T14:38:18;1.75;;;0.95;;
81544;SDS011;70990;50.618;7.346;2023-08-06T14:40:45;3.33;;;1.10;;
81544;SDS011;70990;50.618;7.346;2023-08-06T14:43:11;3.42;;;1.10;;
81544;SDS011;70990;50.618;7.346;2023-08-06T14:45:41;3.92;;;1.38;;
81544;SDS011;70990;50.618;7.346;2023-08-06T14:48:07;4.45;;;1.02;;
81544;SDS011;70990;50.618;7.346;2023-08-06T14:50:34;1.55;;;1.00;;
81544;SDS011;70990;50.618;7.346;2023-08-06T14:53:00;2.95;;;1.10;;
81544;SDS011;70990;50.618;7.346;2023-08-06T14:55:30;2.22;;;1.00;;
81544;SDS011;70990;50.618;7.346;2023-08-06T14:57:56;1.38;;;0.85;;
81544;SDS011;70990;50.618;7.346;2023-08-06T15:00:23;3.50;;;1.20;;
81544;SDS011;70990;50.618;7.346;2023-08-06T15:02:52;2.35;;;0.85;;
81544;SDS011;70990;50.618;7.346;2023-08-06T15:07:48;1.95;;;0.68;;